Date,TemperatureHighF,TemperatureAvgF,TemperatureLowF,DewpointHighF,DewpointAvgF,DewpointLowF,HumidityHigh,HumidityAvg,HumidityLow,PressureMaxIn,PressureMinIn,WindSpeedMaxMPH,WindSpeedAvgMPH,GustSpeedMaxMPH,PrecipitationSumIn
2013-3-1,56,40,24,33,27,20,86,63,35,29.88,29.77,8,2,8,0.00
2013-3-2,53,41,32,38,32,24,85,73,42,29.87,29.77,10,1,10,0.05
2013-3-3,52,35,22,26,19,14,85,57,25,29.95,29.82,115,1,115,0.00
2013-3-4,61,38,20,32,20,12,80,55,21,30.09,28.44,8,1,8,0.00
2013-3-5,63,46,33,49,39,27,93,77,53,30.00,29.58,16,2,16,0.30
2013-3-6,52,41,32,30,25,18,76,54,32,30.04,29.67,14,5,14,0.01
2013-3-7,62,41,25,35,28,20,86,62,27,30.83,30.04,8,1,8,0.00
2013-3-8,66,44,27,33,25,18,83,53,17,30.24,30.11,8,1,8,0.00
2013-3-9,69,46,28,38,29,23,85,58,20,30.27,30.15,8,1,8,0.00
2013-3-10,75,53,35,41,36,30,88,60,22,30.21,30.08,5,1,6,0.00
2013-3-11,71,55,41,54,47,38,93,76,52,30.09,29.76,8,1,8,0.54
2013-3-12,72,59,41,56,47,20,96,71,18,29.95,29.69,8,2,8,0.12
2013-3-13,60,46,32,36,26,17,87,52,23,30.72,29.95,16,4,16,0.00
2013-3-14,57,40,24,30,20,12,81,51,21,30.23,30.08,13,2,13,0.00
2013-3-15,73,51,28,44,34,24,85,57,24,30.13,29.86,14,2,14,0.00
2013-3-16,80,67,55,49,44,40,61,45,29,29.88,29.74,17,5,17,0.00
2013-3-17,80,64,47,54,47,40,83,57,38,29.98,29.83,14,3,14,0.00
2013-3-18,55,44,42,44,41,39,98,88,66,30.02,29.79,12,3,12,1.12
2013-3-19,71,54,43,52,34,19,99,60,15,29.99,29.79,15,3,15,0.00
2013-3-20,62,48,35,34,24,14,82,45,19,30.05,29.76,11,2,11,0.00
2013-3-21,54,42,30,31,14,1,70,35,19,29.89,29.75,17,4,17,0.00
2013-3-22,51,39,25,44,22,15,83,55,24,30.00,29.88,8,1,8,0.00
2013-3-23,44,42,38,38,36,31,85,81,64,29.94,29.87,3,1,3,0.02
2013-3-24,41,41,41,37,37,37,85,85,85,29.91,29.91,1,1,2,0.02
2013-3-25,48,42,35,37,28,20,85,61,37,30.19,29.91,20,6,20,1.03
2013-3-26,52,40,29,27,23,19,75,52,29,30.44,30.17,9,3,9,0.00
2013-3-27,64,41,23,32,23,18,86,55,21,31.19,30.40,9,1,9,0.00
2013-3-28,68,44,26,33,25,18,87,55,16,30.55,30.40,10,1,10,0.00
2013-3-29,66,46,27,42,29,22,87,58,20,31.29,30.44,10,2,10,0.00
2013-3-30,74,57,45,49,43,39,89,64,31,30.45,30.28,8,1,8,0.01
2013-3-31,72,60,52,58,53,48,97,81,53,30.30,30.10,17,3,17,0.45